Aviation Digital Data Service (ADDS)

Output produced by METARs form (2225 UTC 23 March 2019)
found at http://www.aviationweather.gov/metar/data/
 
METAR text: KSNA 232153Z 22010KT 10SM FEW017 SCT250 17/09 A3015 RMK AO2 SLP208 T01720089
Conditions at: KSNA (COSTA MESA , CA, US) observed 2153 UTC 23 March 2019
Temperature: 17.2°C (63°F)
Dewpoint: 8.9°C (48°F) [RH = 58%]
Pressure (altimeter): 30.15 inches Hg (1021.1 mb)
[Sea-level pressure: 1020.8 mb]
Winds: from the SW (220 degrees) at 12 MPH (10 knots; 5.1 m/s)
Visibility: 10 or more miles (16+ km)
Ceiling: at least 12,000 feet AGL
Clouds: few clouds at 1700 feet AGL
scattered clouds at 25000 feet AGL
Weather: no significant weather observed at this time

METAR text: KSNA 232053Z 25005KT 10SM CLR 17/09 A3015 RMK AO2 SLP209 T01720089 58009
Conditions at: KSNA (COSTA MESA , CA, US) observed 2053 UTC 23 March 2019
Temperature: 17.2°C (63°F)
Dewpoint: 8.9°C (48°F) [RH = 58%]
Pressure (altimeter): 30.15 inches Hg (1021.1 mb)
[Sea-level pressure: 1020.9 mb]
Winds: from the WSW (250 degrees) at 6 MPH (5 knots; 2.6 m/s)
Visibility: 10 or more miles (16+ km)
Ceiling: at least 12,000 feet AGL
Clouds: sky clear below 12,000 feet AGL
Weather: no significant weather observed at this time

METAR text: KSNA 231953Z 23008KT 10SM FEW031 SCT250 18/09 A3017 RMK AO2 SLP217 T01780094
Conditions at: KSNA (COSTA MESA , CA, US) observed 1953 UTC 23 March 2019
Temperature: 17.8°C (64°F)
Dewpoint: 9.4°C (49°F) [RH = 58%]
Pressure (altimeter): 30.17 inches Hg (1021.8 mb)
[Sea-level pressure: 1021.7 mb]
Winds: from the SW (230 degrees) at 9 MPH (8 knots; 4.1 m/s)
Visibility: 10 or more miles (16+ km)
Ceiling: at least 12,000 feet AGL
Clouds: few clouds at 3100 feet AGL
scattered clouds at 25000 feet AGL
Weather: no significant weather observed at this time

METAR text: KSNA 231909Z VRB06KT 10SM SCT029 BKN035 BKN042 18/09 A3018 RMK AO2 T01780094
Conditions at: KSNA (COSTA MESA , CA, US) observed 1909 UTC 23 March 2019
Temperature: 17.8°C (64°F)
Dewpoint: 9.4°C (49°F) [RH = 58%]
Pressure (altimeter): 30.18 inches Hg (1022.1 mb)
Winds: variable direction winds at 7 MPH (6 knots; 3.1 m/s)
Visibility: 10 or more miles (16+ km)
Ceiling: 3500 feet AGL
Clouds: scattered clouds at 2900 feet AGL
broken clouds at 3500 feet AGL
broken clouds at 4200 feet AGL
Weather: no significant weather observed at this time

METAR text: KSNA 231900Z 20006KT 10SM BKN027 BKN037 18/09 A3017 RMK AO2 T01780094
Conditions at: KSNA (COSTA MESA , CA, US) observed 1900 UTC 23 March 2019
Temperature: 17.8°C (64°F)
Dewpoint: 9.4°C (49°F) [RH = 58%]
Pressure (altimeter): 30.17 inches Hg (1021.8 mb)
Winds: from the SSW (200 degrees) at 7 MPH (6 knots; 3.1 m/s)
Visibility: 10 or more miles (16+ km)
Ceiling: 2700 feet AGL
Clouds: broken clouds at 2700 feet AGL
broken clouds at 3700 feet AGL
Weather: no significant weather observed at this time

METAR text: KSNA 231853Z 21006KT 10SM BKN034 18/09 A3017 RMK AO2 SLP217 T01780094
Conditions at: KSNA (COSTA MESA , CA, US) observed 1853 UTC 23 March 2019
Temperature: 17.8°C (64°F)
Dewpoint: 9.4°C (49°F) [RH = 58%]
Pressure (altimeter): 30.17 inches Hg (1021.8 mb)
[Sea-level pressure: 1021.7 mb]
Winds: from the SSW (210 degrees) at 7 MPH (6 knots; 3.1 m/s)
Visibility: 10 or more miles (16+ km)
Ceiling: 3400 feet AGL
Clouds: broken clouds at 3400 feet AGL
Weather: no significant weather observed at this time

METAR text: KSNA 231753Z 31003KT 10SM BKN034 16/08 A3018 RMK AO2 SLP219 T01610083 10167 20111 50008
Conditions at: KSNA (COSTA MESA , CA, US) observed 1753 UTC 23 March 2019
Temperature: 16.1°C (61°F)
Dewpoint: 8.3°C (47°F) [RH = 60%]
Pressure (altimeter): 30.18 inches Hg (1022.1 mb)
[Sea-level pressure: 1021.9 mb]
Winds: from the NW (310 degrees) at 3 MPH (3 knots; 1.5 m/s)
Visibility: 10 or more miles (16+ km)
Ceiling: 3400 feet AGL
Clouds: broken clouds at 3400 feet AGL
Weather: no significant weather observed at this time

METAR text: KSNA 231653Z VRB03KT 10SM BKN030 16/09 A3018 RMK AO2 SLP221 T01610089
Conditions at: KSNA (COSTA MESA , CA, US) observed 1653 UTC 23 March 2019
Temperature: 16.1°C (61°F)
Dewpoint: 8.9°C (48°F) [RH = 62%]
Pressure (altimeter): 30.18 inches Hg (1022.1 mb)
[Sea-level pressure: 1022.1 mb]
Winds: variable direction winds at 3 MPH (3 knots; 1.5 m/s)
Visibility: 10 or more miles (16+ km)
Ceiling: 3000 feet AGL
Clouds: broken clouds at 3000 feet AGL
Weather: no significant weather observed at this time

METAR text: KSNA 231620Z 00000KT 10SM BKN030 15/09 A3018 RMK AO2 T01500094
Conditions at: KSNA (COSTA MESA , CA, US) observed 1620 UTC 23 March 2019
Temperature: 15.0°C (59°F)
Dewpoint: 9.4°C (49°F) [RH = 69%]
Pressure (altimeter): 30.18 inches Hg (1022.1 mb)
Winds: calm
Visibility: 10 or more miles (16+ km)
Ceiling: 3000 feet AGL
Clouds: broken clouds at 3000 feet AGL
Weather: no significant weather observed at this time

METAR text: KSNA 231553Z 00000KT 10SM BKN029 14/09 A3017 RMK AO2 SLP216 T01390089
Conditions at: KSNA (COSTA MESA , CA, US) observed 1553 UTC 23 March 2019
Temperature: 13.9°C (57°F)
Dewpoint: 8.9°C (48°F) [RH = 72%]
Pressure (altimeter): 30.17 inches Hg (1021.8 mb)
[Sea-level pressure: 1021.6 mb]
Winds: calm
Visibility: 10 or more miles (16+ km)
Ceiling: 2900 feet AGL
Clouds: broken clouds at 2900 feet AGL
Weather: no significant weather observed at this time

METAR text: KSNA 231453Z 15004KT 10SM BKN027 12/09 A3015 RMK AO2 SLP211 T01220089 53004
Conditions at: KSNA (COSTA MESA , CA, US) observed 1453 UTC 23 March 2019
Temperature: 12.2°C (54°F)
Dewpoint: 8.9°C (48°F) [RH = 80%]
Pressure (altimeter): 30.15 inches Hg (1021.1 mb)
[Sea-level pressure: 1021.1 mb]
Winds: from the SSE (150 degrees) at 5 MPH (4 knots; 2.1 m/s)
Visibility: 10 or more miles (16+ km)
Ceiling: 2700 feet AGL
Clouds: broken clouds at 2700 feet AGL
Weather: no significant weather observed at this time

METAR text: KSNA 231420Z 00000KT 10SM BKN028 12/08 A3016 RMK AO2 T01220083
Conditions at: KSNA (COSTA MESA , CA, US) observed 1420 UTC 23 March 2019
Temperature: 12.2°C (54°F)
Dewpoint: 8.3°C (47°F) [RH = 77%]
Pressure (altimeter): 30.16 inches Hg (1021.4 mb)
Winds: calm
Visibility: 10 or more miles (16+ km)
Ceiling: 2800 feet AGL
Clouds: broken clouds at 2800 feet AGL
Weather: no significant weather observed at this time

METAR text: KSNA 231353Z 00000KT 10SM FEW025 12/08 A3015 RMK AO2 SLP210 T01170083
Conditions at: KSNA (COSTA MESA , CA, US) observed 1353 UTC 23 March 2019
Temperature: 11.7°C (53°F)
Dewpoint: 8.3°C (47°F) [RH = 80%]
Pressure (altimeter): 30.15 inches Hg (1021.1 mb)
[Sea-level pressure: 1021.0 mb]
Winds: calm
Visibility: 10 or more miles (16+ km)
Ceiling: at least 12,000 feet AGL
Clouds: few clouds at 2500 feet AGL
Weather: no significant weather observed at this time

METAR text: KSNA 231331Z 07004KT 10SM SCT025 11/08 A3015 RMK AO2 T01110078
Conditions at: KSNA (COSTA MESA , CA, US) observed 1331 UTC 23 March 2019
Temperature: 11.1°C (52°F)
Dewpoint: 7.8°C (46°F) [RH = 80%]
Pressure (altimeter): 30.15 inches Hg (1021.1 mb)
Winds: from the ENE (70 degrees) at 5 MPH (4 knots; 2.1 m/s)
Visibility: 10 or more miles (16+ km)
Ceiling: at least 12,000 feet AGL
Clouds: scattered clouds at 2500 feet AGL
Weather: no significant weather observed at this time

METAR text: KSNA 231253Z 10003KT 10SM BKN022 12/08 A3014 RMK AO2 SLP206 T01170083
Conditions at: KSNA (COSTA MESA , CA, US) observed 1253 UTC 23 March 2019
Temperature: 11.7°C (53°F)
Dewpoint: 8.3°C (47°F) [RH = 80%]
Pressure (altimeter): 30.14 inches Hg (1020.7 mb)
[Sea-level pressure: 1020.6 mb]
Winds: from the E (100 degrees) at 3 MPH (3 knots; 1.5 m/s)
Visibility: 10 or more miles (16+ km)
Ceiling: 2200 feet AGL
Clouds: broken clouds at 2200 feet AGL
Weather: no significant weather observed at this time

METAR text: KSNA 231248Z 10003KT 10SM BKN022 12/08 A3014 RMK AO2
Conditions at: KSNA (COSTA MESA , CA, US) observed 1248 UTC 23 March 2019
Temperature: 12.0°C (54°F)
Dewpoint: 8.0°C (46°F) [RH = 76%]
Pressure (altimeter): 30.14 inches Hg (1020.7 mb)
Winds: from the E (100 degrees) at 3 MPH (3 knots; 1.5 m/s)
Visibility: 10 or more miles (16+ km)
Ceiling: 2200 feet AGL
Clouds: broken clouds at 2200 feet AGL
Weather: no significant weather observed at this time

METAR text: KSNA 231153Z 04003KT 10SM CLR 11/08 A3014 RMK AO2 SLP205 T01110078 10144 20111 58007
Conditions at: KSNA (COSTA MESA , CA, US) observed 1153 UTC 23 March 2019
Temperature: 11.1°C (52°F)
Dewpoint: 7.8°C (46°F) [RH = 80%]
Pressure (altimeter): 30.14 inches Hg (1020.7 mb)
[Sea-level pressure: 1020.5 mb]
Winds: from the NE (40 degrees) at 3 MPH (3 knots; 1.5 m/s)
Visibility: 10 or more miles (16+ km)
Ceiling: at least 12,000 feet AGL
Clouds: sky clear below 12,000 feet AGL
Weather: no significant weather observed at this time

METAR text: KSNA 231053Z 00000KT 10SM CLR 12/09 A3015 RMK AO2 SLP208 T01220089
Conditions at: KSNA (COSTA MESA , CA, US) observed 1053 UTC 23 March 2019
Temperature: 12.2°C (54°F)
Dewpoint: 8.9°C (48°F) [RH = 80%]
Pressure (altimeter): 30.15 inches Hg (1021.1 mb)
[Sea-level pressure: 1020.8 mb]
Winds: calm
Visibility: 10 or more miles (16+ km)
Ceiling: at least 12,000 feet AGL
Clouds: sky clear below 12,000 feet AGL
Weather: no significant weather observed at this time

METAR text: KSNA 230953Z 00000KT 10SM CLR 12/09 A3015 RMK AO2 SLP210 T01220089
Conditions at: KSNA (COSTA MESA , CA, US) observed 0953 UTC 23 March 2019
Temperature: 12.2°C (54°F)
Dewpoint: 8.9°C (48°F) [RH = 80%]
Pressure (altimeter): 30.15 inches Hg (1021.1 mb)
[Sea-level pressure: 1021.0 mb]
Winds: calm
Visibility: 10 or more miles (16+ km)
Ceiling: at least 12,000 feet AGL
Clouds: sky clear below 12,000 feet AGL
Weather: no significant weather observed at this time

METAR text: KSNA 230853Z 08003KT 10SM CLR 12/09 A3016 RMK AO2 SLP212 T01220089 58002
Conditions at: KSNA (COSTA MESA , CA, US) observed 0853 UTC 23 March 2019
Temperature: 12.2°C (54°F)
Dewpoint: 8.9°C (48°F) [RH = 80%]
Pressure (altimeter): 30.16 inches Hg (1021.4 mb)
[Sea-level pressure: 1021.2 mb]
Winds: from the E (80 degrees) at 3 MPH (3 knots; 1.5 m/s)
Visibility: 10 or more miles (16+ km)
Ceiling: at least 12,000 feet AGL
Clouds: sky clear below 12,000 feet AGL
Weather: no significant weather observed at this time

METAR text: KSNA 230753Z 00000KT 10SM CLR 13/09 A3017 RMK AO2 SLP215 T01330094 401830111
Conditions at: KSNA (COSTA MESA , CA, US) observed 0753 UTC 23 March 2019
Temperature: 13.3°C (56°F)
Dewpoint: 9.4°C (49°F) [RH = 77%]
Pressure (altimeter): 30.17 inches Hg (1021.8 mb)
[Sea-level pressure: 1021.5 mb]
Winds: calm
Visibility: 10 or more miles (16+ km)
Ceiling: at least 12,000 feet AGL
Clouds: sky clear below 12,000 feet AGL
Weather: no significant weather observed at this time

METAR text: KSNA 230653Z 00000KT 10SM CLR 13/09 A3016 RMK AO2 SLP212 T01330094
Conditions at: KSNA (COSTA MESA , CA, US) observed 0653 UTC 23 March 2019
Temperature: 13.3°C (56°F)
Dewpoint: 9.4°C (49°F) [RH = 77%]
Pressure (altimeter): 30.16 inches Hg (1021.4 mb)
[Sea-level pressure: 1021.2 mb]
Winds: calm
Visibility: 10 or more miles (16+ km)
Ceiling: at least 12,000 feet AGL
Clouds: sky clear below 12,000 feet AGL
Weather: no significant weather observed at this time

METAR text: KSNA 230553Z 00000KT 10SM FEW200 SCT250 14/09 A3016 RMK AO2 SLP214 LAST T01440094 10172 20144 50007
Conditions at: KSNA (COSTA MESA , CA, US) observed 0553 UTC 23 March 2019
Temperature: 14.4°C (58°F)
Dewpoint: 9.4°C (49°F) [RH = 72%]
Pressure (altimeter): 30.16 inches Hg (1021.4 mb)
[Sea-level pressure: 1021.4 mb]
Winds: calm
Visibility: 10 or more miles (16+ km)
Ceiling: at least 12,000 feet AGL
Clouds: few clouds at 20000 feet AGL
scattered clouds at 25000 feet AGL
Weather: no significant weather observed at this time

METAR text: KSNA 230453Z 24003KT 10SM BKN250 14/09 A3017 RMK AO2 SLP215 T01440094
Conditions at: KSNA (COSTA MESA , CA, US) observed 0453 UTC 23 March 2019
Temperature: 14.4°C (58°F)
Dewpoint: 9.4°C (49°F) [RH = 72%]
Pressure (altimeter): 30.17 inches Hg (1021.8 mb)
[Sea-level pressure: 1021.5 mb]
Winds: from the WSW (240 degrees) at 3 MPH (3 knots; 1.5 m/s)
Visibility: 10 or more miles (16+ km)
Ceiling: 25000 feet AGL
Clouds: broken clouds at 25000 feet AGL
Weather: no significant weather observed at this time

METAR text: KSNA 230353Z 00000KT 10SM SCT250 14/09 A3015 RMK AO2 SLP211 T01440089
Conditions at: KSNA (COSTA MESA , CA, US) observed 0353 UTC 23 March 2019
Temperature: 14.4°C (58°F)
Dewpoint: 8.9°C (48°F) [RH = 70%]
Pressure (altimeter): 30.15 inches Hg (1021.1 mb)
[Sea-level pressure: 1021.1 mb]
Winds: calm
Visibility: 10 or more miles (16+ km)
Ceiling: at least 12,000 feet AGL
Clouds: scattered clouds at 25000 feet AGL
Weather: no significant weather observed at this time

METAR text: KSNA 230253Z 00000KT 10SM FEW210 BKN260 15/09 A3014 RMK AO2 SLP207 T01500089 53006
Conditions at: KSNA (COSTA MESA , CA, US) observed 0253 UTC 23 March 2019
Temperature: 15.0°C (59°F)
Dewpoint: 8.9°C (48°F) [RH = 67%]
Pressure (altimeter): 30.14 inches Hg (1020.7 mb)
[Sea-level pressure: 1020.7 mb]
Winds: calm
Visibility: 10 or more miles (16+ km)
Ceiling: 26000 feet AGL
Clouds: few clouds at 21000 feet AGL
broken clouds at 26000 feet AGL
Weather: no significant weather observed at this time

METAR text: KSNA 230153Z 25004KT 10SM FEW037 FEW220 BKN260 16/09 A3013 RMK AO2 SLP203 T01560089
Conditions at: KSNA (COSTA MESA , CA, US) observed 0153 UTC 23 March 2019
Temperature: 15.6°C (60°F)
Dewpoint: 8.9°C (48°F) [RH = 64%]
Pressure (altimeter): 30.13 inches Hg (1020.4 mb)
[Sea-level pressure: 1020.3 mb]
Winds: from the WSW (250 degrees) at 5 MPH (4 knots; 2.1 m/s)
Visibility: 10 or more miles (16+ km)
Ceiling: 26000 feet AGL
Clouds: few clouds at 3700 feet AGL
few clouds at 22000 feet AGL
broken clouds at 26000 feet AGL
Weather: no significant weather observed at this time

METAR text: KSNA 230053Z 23008KT 10SM FEW045 BKN250 16/09 A3013 RMK AO2 SLP201 T01560089
Conditions at: KSNA (COSTA MESA , CA, US) observed 0053 UTC 23 March 2019
Temperature: 15.6°C (60°F)
Dewpoint: 8.9°C (48°F) [RH = 64%]
Pressure (altimeter): 30.13 inches Hg (1020.4 mb)
[Sea-level pressure: 1020.1 mb]
Winds: from the SW (230 degrees) at 9 MPH (8 knots; 4.1 m/s)
Visibility: 10 or more miles (16+ km)
Ceiling: 25000 feet AGL
Clouds: few clouds at 4500 feet AGL
broken clouds at 25000 feet AGL
Weather: no significant weather observed at this time

METAR text: KSNA 222353Z 24007KT 10SM FEW026 FEW042 BKN250 17/09 A3013 RMK AO2 SLP202 T01670089 10183 20156 56006
Conditions at: KSNA (COSTA MESA , CA, US) observed 2353 UTC 22 March 2019
Temperature: 16.7°C (62°F)
Dewpoint: 8.9°C (48°F) [RH = 60%]
Pressure (altimeter): 30.13 inches Hg (1020.4 mb)
[Sea-level pressure: 1020.2 mb]
Winds: from the WSW (240 degrees) at 8 MPH (7 knots; 3.6 m/s)
Visibility: 10 or more miles (16+ km)
Ceiling: 25000 feet AGL
Clouds: few clouds at 2600 feet AGL
few clouds at 4200 feet AGL
broken clouds at 25000 feet AGL
Weather: no significant weather observed at this time

METAR text: KSNA 222253Z 22009KT 10SM FEW026 FEW041 SCT250 17/09 A3013 RMK AO2 SLP203 T01720089
Conditions at: KSNA (COSTA MESA , CA, US) observed 2253 UTC 22 March 2019
Temperature: 17.2°C (63°F)
Dewpoint: 8.9°C (48°F) [RH = 58%]
Pressure (altimeter): 30.13 inches Hg (1020.4 mb)
[Sea-level pressure: 1020.3 mb]
Winds: from the SW (220 degrees) at 10 MPH (9 knots; 4.6 m/s)
Visibility: 10 or more miles (16+ km)
Ceiling: at least 12,000 feet AGL
Clouds: few clouds at 2600 feet AGL
few clouds at 4100 feet AGL
scattered clouds at 25000 feet AGL
Weather: no significant weather observed at this time

METAR text: KSNA 222153Z 24007KT 10SM SCT034 SCT038 SCT250 17/09 A3014 RMK AO2 SLP206 T01720089
Conditions at: KSNA (COSTA MESA , CA, US) observed 2153 UTC 22 March 2019
Temperature: 17.2°C (63°F)
Dewpoint: 8.9°C (48°F) [RH = 58%]
Pressure (altimeter): 30.14 inches Hg (1020.7 mb)
[Sea-level pressure: 1020.6 mb]
Winds: from the WSW (240 degrees) at 8 MPH (7 knots; 3.6 m/s)
Visibility: 10 or more miles (16+ km)
Ceiling: at least 12,000 feet AGL
Clouds: scattered clouds at 3400 feet AGL
scattered clouds at 3800 feet AGL
scattered clouds at 25000 feet AGL
Weather: no significant weather observed at this time

METAR text: KSNA 222053Z 20010KT 10SM FEW032 SCT038 BKN250 18/09 A3015 RMK AO2 SLP208 T01780094 58017
Conditions at: KSNA (COSTA MESA , CA, US) observed 2053 UTC 22 March 2019
Temperature: 17.8°C (64°F)
Dewpoint: 9.4°C (49°F) [RH = 58%]
Pressure (altimeter): 30.15 inches Hg (1021.1 mb)
[Sea-level pressure: 1020.8 mb]
Winds: from the SSW (200 degrees) at 12 MPH (10 knots; 5.1 m/s)
Visibility: 10 or more miles (16+ km)
Ceiling: 25000 feet AGL
Clouds: few clouds at 3200 feet AGL
scattered clouds at 3800 feet AGL
broken clouds at 25000 feet AGL
Weather: no significant weather observed at this time

METAR text: KSNA 221953Z VRB05KT 10SM BKN030 BKN036 BKN250 17/09 A3017 RMK AO2 SLP217 T01720094
Conditions at: KSNA (COSTA MESA , CA, US) observed 1953 UTC 22 March 2019
Temperature: 17.2°C (63°F)
Dewpoint: 9.4°C (49°F) [RH = 60%]
Pressure (altimeter): 30.17 inches Hg (1021.8 mb)
[Sea-level pressure: 1021.7 mb]
Winds: variable direction winds at 6 MPH (5 knots; 2.6 m/s)
Visibility: 10 or more miles (16+ km)
Ceiling: 3000 feet AGL
Clouds: broken clouds at 3000 feet AGL
broken clouds at 3600 feet AGL
broken clouds at 25000 feet AGL
Weather: no significant weather observed at this time

METAR text: KSNA 221853Z VRB03KT 10SM FEW030 BKN038 BKN250 17/08 A3019 RMK AO2 SLP222 T01670083
Conditions at: KSNA (COSTA MESA , CA, US) observed 1853 UTC 22 March 2019
Temperature: 16.7°C (62°F)
Dewpoint: 8.3°C (47°F) [RH = 58%]
Pressure (altimeter): 30.19 inches Hg (1022.4 mb)
[Sea-level pressure: 1022.2 mb]
Winds: variable direction winds at 3 MPH (3 knots; 1.5 m/s)
Visibility: 10 or more miles (16+ km)
Ceiling: 3800 feet AGL
Clouds: few clouds at 3000 feet AGL
broken clouds at 3800 feet AGL
broken clouds at 25000 feet AGL
Weather: no significant weather observed at this time

METAR text: KSNA 221753Z 00000KT 10SM BKN030 BKN250 16/08 A3020 RMK AO2 SLP224 T01560078 10161 20111 53005
Conditions at: KSNA (COSTA MESA , CA, US) observed 1753 UTC 22 March 2019
Temperature: 15.6°C (60°F)
Dewpoint: 7.8°C (46°F) [RH = 60%]
Pressure (altimeter): 30.20 inches Hg (1022.8 mb)
[Sea-level pressure: 1022.4 mb]
Winds: calm
Visibility: 10 or more miles (16+ km)
Ceiling: 3000 feet AGL
Clouds: broken clouds at 3000 feet AGL
broken clouds at 25000 feet AGL
Weather: no significant weather observed at this time

METAR text: KSNA 221732Z COR VRB03KT 10SM BKN030 BKN250 15/07 A3020 RMK AO2 T01500072
Conditions at: KSNA (COSTA MESA , CA, US) observed 1732 UTC 22 March 2019
Temperature: 15.0°C (59°F)
Dewpoint: 7.2°C (45°F) [RH = 60%]
Pressure (altimeter): 30.20 inches Hg (1022.8 mb)
Winds: variable direction winds at 3 MPH (3 knots; 1.5 m/s)
Visibility: 10 or more miles (16+ km)
Ceiling: 3000 feet AGL
Clouds: broken clouds at 3000 feet AGL
broken clouds at 25000 feet AGL
Weather: no significant weather observed at this time

METAR text: KSNA 221653Z 00000KT 10SM BKN026 14/07 A3019 RMK AO2 SLP222 T01440072
Conditions at: KSNA (COSTA MESA , CA, US) observed 1653 UTC 22 March 2019
Temperature: 14.4°C (58°F)
Dewpoint: 7.2°C (45°F) [RH = 62%]
Pressure (altimeter): 30.19 inches Hg (1022.4 mb)
[Sea-level pressure: 1022.2 mb]
Winds: calm
Visibility: 10 or more miles (16+ km)
Ceiling: 2600 feet AGL
Clouds: broken clouds at 2600 feet AGL
Weather: no significant weather observed at this time

METAR text: KSNA 221553Z 00000KT 10SM FEW016 BKN023 BKN180 14/08 A3019 RMK AO2 SLP221 T01390078
Conditions at: KSNA (COSTA MESA , CA, US) observed 1553 UTC 22 March 2019
Temperature: 13.9°C (57°F)
Dewpoint: 7.8°C (46°F) [RH = 67%]
Pressure (altimeter): 30.19 inches Hg (1022.4 mb)
[Sea-level pressure: 1022.1 mb]
Winds: calm
Visibility: 10 or more miles (16+ km)
Ceiling: 2300 feet AGL
Clouds: few clouds at 1600 feet AGL
broken clouds at 2300 feet AGL
broken clouds at 18000 feet AGL
Weather: no significant weather observed at this time

METAR text: KSNA 221453Z 00000KT 10SM BKN024 BKN180 13/08 A3018 RMK AO2 SLP219 T01280078 53014
Conditions at: KSNA (COSTA MESA , CA, US) observed 1453 UTC 22 March 2019
Temperature: 12.8°C (55°F)
Dewpoint: 7.8°C (46°F) [RH = 72%]
Pressure (altimeter): 30.18 inches Hg (1022.1 mb)
[Sea-level pressure: 1021.9 mb]
Winds: calm
Visibility: 10 or more miles (16+ km)
Ceiling: 2400 feet AGL
Clouds: broken clouds at 2400 feet AGL
broken clouds at 18000 feet AGL
Weather: no significant weather observed at this time

METAR text: KSNA 221434Z 10003KT 10SM BKN024 BKN045 BKN180 12/08 A3018 RMK AO2 T01220078
Conditions at: KSNA (COSTA MESA , CA, US) observed 1434 UTC 22 March 2019
Temperature: 12.2°C (54°F)
Dewpoint: 7.8°C (46°F) [RH = 74%]
Pressure (altimeter): 30.18 inches Hg (1022.1 mb)
Winds: from the E (100 degrees) at 3 MPH (3 knots; 1.5 m/s)
Visibility: 10 or more miles (16+ km)
Ceiling: 2400 feet AGL
Clouds: broken clouds at 2400 feet AGL
broken clouds at 4500 feet AGL
broken clouds at 18000 feet AGL
Weather: no significant weather observed at this time

METAR text: KSNA 221353Z 00000KT 10SM FEW030 FEW050 FEW180 11/07 A3016 RMK AO2 SLP214 T01110072
Conditions at: KSNA (COSTA MESA , CA, US) observed 1353 UTC 22 March 2019
Temperature: 11.1°C (52°F)
Dewpoint: 7.2°C (45°F) [RH = 77%]
Pressure (altimeter): 30.16 inches Hg (1021.4 mb)
[Sea-level pressure: 1021.4 mb]
Winds: calm
Visibility: 10 or more miles (16+ km)
Ceiling: at least 12,000 feet AGL
Clouds: few clouds at 3000 feet AGL
few clouds at 5000 feet AGL
few clouds at 18000 feet AGL
Weather: no significant weather observed at this time

METAR text: KSNA 221253Z 13003KT 10SM FEW050 11/07 A3015 RMK AO2 SLP209 T01110072
Conditions at: KSNA (COSTA MESA , CA, US) observed 1253 UTC 22 March 2019
Temperature: 11.1°C (52°F)
Dewpoint: 7.2°C (45°F) [RH = 77%]
Pressure (altimeter): 30.15 inches Hg (1021.1 mb)
[Sea-level pressure: 1020.9 mb]
Winds: from the SE (130 degrees) at 3 MPH (3 knots; 1.5 m/s)
Visibility: 10 or more miles (16+ km)
Ceiling: at least 12,000 feet AGL
Clouds: few clouds at 5000 feet AGL
Weather: no significant weather observed at this time

METAR text: KSNA 221153Z AUTO 10004KT 10SM SCT021 12/08 A3014 RMK AO2 SLP205 70011 T01170078 10128 20117 57008
Conditions at: KSNA (COSTA MESA , CA, US) observed 1153 UTC 22 March 2019
Temperature: 11.7°C (53°F)
Dewpoint: 7.8°C (46°F) [RH = 77%]
Pressure (altimeter): 30.14 inches Hg (1020.7 mb)
[Sea-level pressure: 1020.5 mb]
Winds: from the E (100 degrees) at 5 MPH (4 knots; 2.1 m/s)
Visibility: 10 or more miles (16+ km)
Ceiling: at least 12,000 feet AGL
Clouds: scattered clouds at 2100 feet AGL
Weather: automated observation with no human augmentation;
there may or may not be significant weather present at this time

METAR text: KSNA 221053Z AUTO 00000KT 10SM BKN021 OVC037 12/08 A3014 RMK AO2 SLP207 T01220083
Conditions at: KSNA (COSTA MESA , CA, US) observed 1053 UTC 22 March 2019
Temperature: 12.2°C (54°F)
Dewpoint: 8.3°C (47°F) [RH = 77%]
Pressure (altimeter): 30.14 inches Hg (1020.7 mb)
[Sea-level pressure: 1020.7 mb]
Winds: calm
Visibility: 10 or more miles (16+ km)
Ceiling: 2100 feet AGL
Clouds: broken clouds at 2100 feet AGL
overcast cloud deck at 3700 feet AGL
Weather: automated observation with no human augmentation;
there may or may not be significant weather present at this time

Forecast for: KSNA (COSTA MESA , CA, US)
Text: KSNA 231737Z 2318/2418 VRB04KT P6SM BKN030 BKN250
Forecast period: 1800 to 2100 UTC 23 March 2019
Forecast type: FROM: standard forecast or significant change
Winds: variable direction winds at 5 MPH (4 knots; 2.1 m/s)
Visibility: 6 or more miles 10+ km)
Ceiling: 3000 feet AGL
Clouds: broken clouds at 3000 feet AGL
broken clouds at 25000 feet AGL
Weather: no significant weather forecast for this period
Text: FM232100 23009KT P6SM SCT030 SCT250
Forecast period: 2100 UTC 23 March 2019 to 0230 UTC 24 March 2019
Forecast type: FROM: standard forecast or significant change
Winds: from the SW (230 degrees) at 10 MPH (9 knots; 4.6 m/s)
Visibility: 6 or more miles 10+ km)
Ceiling: at least 12,000 feet AGL
Clouds: scattered clouds at 3000 feet AGL
scattered clouds at 25000 feet AGL
Weather: no significant weather forecast for this period
Text: FM240230 VRB04KT P6SM BKN013
Forecast period: 0230 to 1400 UTC 24 March 2019
Forecast type: FROM: standard forecast or significant change
Winds: variable direction winds at 5 MPH (4 knots; 2.1 m/s)
Visibility: 6 or more miles 10+ km)
Ceiling: 1300 feet AGL
Clouds: broken clouds at 1300 feet AGL
Weather: no significant weather forecast for this period
Text: FM241400 VRB04KT P6SM SCT015
Forecast period: 1400 to 1800 UTC 24 March 2019
Forecast type: FROM: standard forecast or significant change
Winds: variable direction winds at 5 MPH (4 knots; 2.1 m/s)
Visibility: 6 or more miles 10+ km)
Ceiling: at least 12,000 feet AGL
Clouds: scattered clouds at 1500 feet AGL
Weather: no significant weather forecast for this period